windsock image

Welcome to Bigfield Strip.

anemometer image
     

 Help for dials.  
 
Local Met:

Wind:   
10 Min average:  
271 ° / 0.0 kts (0.0)
274° / 0.0

Temperature:  
12.8°C C
Dew Point:  
11.7°C C
QNH:  
Trend:  
1007.2 mb mb
+0.4mb/hr
BigField Strip. This image updates approximately every minute, it can have a two minute delay.  
 

Humidity:  
93 %
Sunrise:   03:48z
Sunset:   20:26z
Updated:  
  UTC
 
   More met info, trends, radar, history etc. available here   

LUTON Metar   EGGW 300450Z AUTO 21003KT 9999 BKN006 13/13 Q1008
 
  TAF   2016/06/30 03:36 TAF AMD EGGW 300328Z 3003/3024 21009KT 9999 BKN009 BECMG 3004/3007 SCT020 PROB30 TEMPO 3011/3021 8000 SHRA BECMG 3021/3024 BKN010 PROB30 TEMPO 3021/3024 8000 -DZ
 
BENSON Metar   EGUB 300350Z 18004KT 9999 SCT014 BKN050 13/12 Q1007 GRN
 
  TAF   2016/06/29 21:36 TAF TAF AMD EGUB 292122Z 2921/3002 20012KT 9999 FEW015 BKN030 TEMPO 2921/2924 BKN012 PROB40 TEMPO 2921/2923 5000 -DZ
 
Big Field view 1 icon   Big Field view 2 icon   Big Field view 3 icon   Chart AL3a in PDF icon   Chart AL3a in Word icon

WARNING:
This information is provided by the Airstrip unofficial weather station, DO NOT depend on the data provided here for any purpose.
This page is updated for latest Metars & TAF's every 5 minutes. Refresh the browser to check for the lastest.
Page designed for a minimum browser size of 1024x768.
© Copyright 2016 BigField Strip. This page auto generated 05:01 UTC - 30/06/2016   Contact Us
Valid HTML 4.01 Transitional     Windows uptime: 3 Days 2 Hours 29 Minutes 27 Seconds    WD started: 02:37 27/06/16    Free memory: 1486MB     Valid CSS!